createdAt,value
2017-01-19T00:00:42.278Z,1059.06
2017-01-19T00:01:42.261Z,1059.06
2017-01-19T00:02:42.246Z,1059.05
2017-01-19T00:03:42.229Z,1059.06
2017-01-19T00:04:42.213Z,1059.09
2017-01-19T00:05:42.196Z,1059.1
2017-01-19T00:06:42.180Z,1059.13
2017-01-19T00:07:42.163Z,1059.14
2017-01-19T00:08:42.146Z,1059.16
2017-01-19T00:09:42.131Z,1059.16
2017-01-19T00:10:42.114Z,1059.24
2017-01-19T00:11:42.097Z,1059.17
2017-01-19T00:12:42.080Z,1059.12
2017-01-19T00:13:42.064Z,1059.11
2017-01-19T00:14:42.048Z,1059.15
2017-01-19T00:15:42.031Z,1059.11
2017-01-19T00:16:42.015Z,1059.11
2017-01-19T00:17:42.000Z,1059.21
2017-01-19T00:18:41.983Z,1059.22
2017-01-19T00:19:41.965Z,1059.22
2017-01-19T00:20:41.949Z,1059.27
2017-01-19T00:21:41.935Z,1059.33
2017-01-19T00:22:41.916Z,1059.33
2017-01-19T00:23:41.899Z,1059.35
2017-01-19T00:24:41.884Z,1059.35
2017-01-19T00:25:41.867Z,1059.44
2017-01-19T00:26:41.850Z,1059.43
2017-01-19T00:27:41.834Z,1059.44
2017-01-19T00:28:41.818Z,1059.45
2017-01-19T00:29:41.801Z,1059.44
2017-01-19T00:30:41.785Z,1059.44
2017-01-19T00:31:41.769Z,1059.42
2017-01-19T00:32:41.753Z,1059.4
2017-01-19T00:33:41.735Z,1059.36
2017-01-19T00:34:41.720Z,1059.35
2017-01-19T00:35:41.703Z,1059.28
2017-01-19T00:36:41.686Z,1059.24
2017-01-19T00:37:41.669Z,1059.14
2017-01-19T00:38:41.653Z,1059.12
2017-01-19T00:39:41.637Z,1059.09
2017-01-19T00:40:41.620Z,1059.04
2017-01-19T00:41:41.603Z,1059
2017-01-19T00:42:41.587Z,1058.95
2017-01-19T00:43:41.571Z,1058.9
2017-01-19T00:44:41.553Z,1058.88
2017-01-19T00:45:41.537Z,1058.85
2017-01-19T00:46:41.523Z,1058.84
2017-01-19T00:47:41.505Z,1058.82
2017-01-19T00:48:41.488Z,1058.8
2017-01-19T00:49:41.471Z,1058.78
2017-01-19T00:50:41.455Z,1058.82
2017-01-19T00:51:41.438Z,1058.8
2017-01-19T00:52:41.421Z,1058.78
2017-01-19T00:53:41.405Z,1058.77
2017-01-19T00:54:41.389Z,1058.7
2017-01-19T00:55:41.372Z,1058.74
2017-01-19T00:56:41.356Z,1058.75
2017-01-19T00:57:41.340Z,1058.77
2017-01-19T00:58:41.324Z,1058.8
2017-01-19T00:59:41.307Z,1058.82
2017-01-19T01:00:41.290Z,1058.84
2017-01-19T01:01:41.275Z,1058.81
2017-01-19T01:02:41.257Z,1058.81
2017-01-19T01:03:41.241Z,1058.82
2017-01-19T01:04:41.225Z,1058.85
2017-01-19T01:05:41.209Z,1058.85
2017-01-19T01:06:41.202Z,1058.84
2017-01-19T01:07:41.176Z,1058.81
2017-01-19T01:08:41.160Z,1058.82
2017-01-19T01:09:41.144Z,1058.79
2017-01-19T01:10:41.127Z,1058.76
2017-01-19T01:11:41.111Z,1058.76
2017-01-19T01:12:41.095Z,1058.74
2017-01-19T01:13:41.078Z,1058.73
2017-01-19T01:14:41.062Z,1058.71
2017-01-19T01:15:41.045Z,1058.68
2017-01-19T01:16:41.029Z,1058.7
2017-01-19T01:17:41.012Z,1058.73
2017-01-19T01:18:40.996Z,1058.75
2017-01-19T01:19:40.981Z,1058.75
2017-01-19T01:20:40.965Z,1058.77
2017-01-19T01:21:40.947Z,1058.78
2017-01-19T01:22:40.932Z,1058.8
2017-01-19T01:23:40.915Z,1058.78
2017-01-19T01:24:40.899Z,1058.78
2017-01-19T01:25:40.882Z,1058.75
2017-01-19T01:26:40.866Z,1058.75
2017-01-19T01:27:40.850Z,1058.73
2017-01-19T01:28:40.834Z,1058.66
2017-01-19T01:29:40.817Z,1058.68
2017-01-19T01:30:40.802Z,1058.65
2017-01-19T01:31:40.785Z,1058.66
2017-01-19T01:32:40.768Z,1058.67
2017-01-19T01:33:40.753Z,1058.67
2017-01-19T01:34:40.737Z,1058.67
2017-01-19T01:35:40.721Z,1058.63
2017-01-19T01:36:40.704Z,1058.64
2017-01-19T01:37:40.688Z,1058.62
2017-01-19T01:38:40.672Z,1058.59
2017-01-19T01:39:40.655Z,1058.57
2017-01-19T01:40:40.639Z,1058.58
2017-01-19T01:41:40.623Z,1058.56
2017-01-19T01:42:40.608Z,1058.61
2017-01-19T01:43:40.592Z,1058.62
2017-01-19T01:44:40.576Z,1058.62
2017-01-19T01:45:40.560Z,1058.59
2017-01-19T01:46:40.544Z,1058.57
2017-01-19T01:47:40.528Z,1058.57
2017-01-19T01:48:40.513Z,1058.58
2017-01-19T01:49:40.497Z,1058.54
2017-01-19T01:50:40.481Z,1058.48
2017-01-19T01:51:40.465Z,1058.51
2017-01-19T01:52:40.450Z,1058.54
2017-01-19T01:53:40.434Z,1058.53
2017-01-19T01:54:40.417Z,1058.55
2017-01-19T01:55:40.402Z,1058.57
2017-01-19T01:56:40.386Z,1058.59
2017-01-19T01:57:40.370Z,1058.6
2017-01-19T01:58:40.355Z,1058.6
2017-01-19T01:59:40.339Z,1058.61
2017-01-19T02:00:40.324Z,1058.61
2017-01-19T02:01:40.307Z,1058.57
2017-01-19T02:02:40.291Z,1058.58
2017-01-19T02:03:40.276Z,1058.54
2017-01-19T02:04:40.260Z,1058.49
2017-01-19T02:05:40.245Z,1058.52
2017-01-19T02:06:40.229Z,1058.5
2017-01-19T02:07:40.213Z,1058.52
2017-01-19T02:08:40.197Z,1058.52
2017-01-19T02:09:40.181Z,1058.55
2017-01-19T02:10:40.166Z,1058.52
2017-01-19T02:11:40.150Z,1058.53
2017-01-19T02:12:40.133Z,1058.51
2017-01-19T02:13:40.119Z,1058.5
2017-01-19T02:14:40.102Z,1058.49
2017-01-19T02:15:40.086Z,1058.48
2017-01-19T02:16:40.070Z,1058.45
2017-01-19T02:17:40.055Z,1058.48
2017-01-19T02:18:40.039Z,1058.42
2017-01-19T02:19:40.023Z,1058.41
2017-01-19T02:20:40.008Z,1058.41
2017-01-19T02:21:39.992Z,1058.42
2017-01-19T02:22:39.977Z,1058.43
2017-01-19T02:23:39.960Z,1058.46
2017-01-19T02:24:39.947Z,1058.48
2017-01-19T02:25:39.930Z,1058.52
2017-01-19T02:26:39.913Z,1058.54
2017-01-19T02:27:39.899Z,1058.55
2017-01-19T02:28:39.882Z,1058.55
2017-01-19T02:29:39.867Z,1058.59
2017-01-19T02:30:39.850Z,1058.61
2017-01-19T02:31:39.835Z,1058.61
2017-01-19T02:32:39.820Z,1058.62
2017-01-19T02:33:39.804Z,1058.67
2017-01-19T02:34:39.787Z,1058.75
2017-01-19T02:35:39.773Z,1058.72
2017-01-19T02:36:39.757Z,1058.75
2017-01-19T02:37:39.740Z,1058.81
2017-01-19T02:38:39.725Z,1058.82
2017-01-19T02:39:39.709Z,1058.83
2017-01-19T02:40:39.694Z,1058.86
2017-01-19T02:41:39.682Z,1058.82
2017-01-19T02:42:39.661Z,1058.85
2017-01-19T02:43:39.645Z,1058.84
2017-01-19T02:44:39.630Z,1058.79
2017-01-19T02:45:39.613Z,1058.82
2017-01-19T02:46:39.598Z,1058.8
2017-01-19T02:47:39.582Z,1058.74
2017-01-19T02:48:39.568Z,1058.67
2017-01-19T02:49:39.550Z,1058.6
2017-01-19T02:50:39.534Z,1058.54
2017-01-19T02:51:39.520Z,1058.53
2017-01-19T02:52:39.502Z,1058.56
2017-01-19T02:53:39.486Z,1058.59
2017-01-19T02:54:39.470Z,1058.57
2017-01-19T02:55:39.454Z,1058.57
2017-01-19T02:56:39.438Z,1058.59
2017-01-19T02:57:39.423Z,1058.62
2017-01-19T02:58:39.406Z,1058.59
2017-01-19T02:59:39.389Z,1058.63
2017-01-19T03:00:39.374Z,1058.64
2017-01-19T03:01:39.358Z,1058.65
2017-01-19T03:02:39.342Z,1058.63
2017-01-19T03:03:39.326Z,1058.59
2017-01-19T03:04:39.310Z,1058.58
2017-01-19T03:05:39.294Z,1058.61
2017-01-19T03:06:39.279Z,1058.59
2017-01-19T03:07:39.262Z,1058.58
2017-01-19T03:08:39.246Z,1058.6
2017-01-19T03:09:39.231Z,1058.62
2017-01-19T03:10:39.225Z,1058.71
2017-01-19T03:11:39.198Z,1058.69
2017-01-19T03:12:39.183Z,1058.73
2017-01-19T03:13:39.166Z,1058.8
2017-01-19T03:14:39.150Z,1058.86
2017-01-19T03:15:39.134Z,1058.85
2017-01-19T03:16:39.118Z,1058.83
2017-01-19T03:17:39.102Z,1058.86
2017-01-19T03:18:39.085Z,1058.79
2017-01-19T03:19:39.069Z,1058.79
2017-01-19T03:20:39.054Z,1058.73
2017-01-19T03:21:39.037Z,1058.69
2017-01-19T03:22:39.024Z,1058.66
2017-01-19T03:23:39.006Z,1058.71
2017-01-19T03:24:38.989Z,1058.7
2017-01-19T03:25:38.972Z,1058.76
2017-01-19T03:26:38.956Z,1058.77
2017-01-19T03:27:38.942Z,1058.78
2017-01-19T03:28:38.924Z,1058.82
2017-01-19T03:29:38.908Z,1058.82
2017-01-19T03:30:38.892Z,1058.88
2017-01-19T03:31:38.876Z,1058.83
2017-01-19T03:32:38.859Z,1058.81
2017-01-19T03:33:38.843Z,1058.84
2017-01-19T03:34:38.826Z,1058.84
2017-01-19T03:35:38.811Z,1058.84
2017-01-19T03:36:38.794Z,1058.85
2017-01-19T03:37:38.778Z,1058.77
2017-01-19T03:38:38.762Z,1058.78
2017-01-19T03:39:38.746Z,1058.74
2017-01-19T03:40:38.730Z,1058.68
2017-01-19T03:41:38.714Z,1058.67
2017-01-19T03:42:38.697Z,1058.58
2017-01-19T03:43:38.680Z,1058.53
2017-01-19T03:44:38.665Z,1058.49
2017-01-19T03:45:38.649Z,1058.48
2017-01-19T03:46:38.633Z,1058.46
2017-01-19T03:47:38.616Z,1058.42
2017-01-19T03:48:38.600Z,1058.4
2017-01-19T03:49:38.584Z,1058.41
2017-01-19T03:50:38.567Z,1058.39
2017-01-19T03:51:38.551Z,1058.39
2017-01-19T03:52:38.535Z,1058.39
2017-01-19T03:53:38.519Z,1058.35
2017-01-19T03:54:38.502Z,1058.41
2017-01-19T03:55:38.487Z,1058.37
2017-01-19T03:56:38.471Z,1058.38
2017-01-19T03:57:38.455Z,1058.37
2017-01-19T03:58:38.438Z,1058.36
2017-01-19T03:59:38.422Z,1058.32
2017-01-19T04:00:38.406Z,1058.31
2017-01-19T04:01:38.389Z,1058.33
2017-01-19T04:02:38.373Z,1058.34
2017-01-19T04:03:38.358Z,1058.33
2017-01-19T04:04:38.342Z,1058.34
2017-01-19T04:05:38.325Z,1058.32
2017-01-19T04:06:38.309Z,1058.3
2017-01-19T04:07:38.294Z,1058.32
2017-01-19T04:08:38.279Z,1058.32
2017-01-19T04:09:38.261Z,1058.34
2017-01-19T04:10:38.245Z,1058.4
2017-01-19T04:11:38.229Z,1058.41
2017-01-19T04:12:38.213Z,1058.45
2017-01-19T04:13:38.197Z,1058.4
2017-01-19T04:14:38.181Z,1058.42
2017-01-19T04:15:38.166Z,1058.38
2017-01-19T04:16:38.149Z,1058.35
2017-01-19T04:17:38.133Z,1058.3
2017-01-19T04:18:38.118Z,1058.29
2017-01-19T04:19:38.101Z,1058.32
2017-01-19T04:20:38.085Z,1058.27
2017-01-19T04:21:38.069Z,1058.28
2017-01-19T04:22:38.053Z,1058.28
2017-01-19T04:23:38.036Z,1058.22
2017-01-19T04:24:38.020Z,1058.25
2017-01-19T04:25:38.005Z,1058.24
2017-01-19T04:26:37.989Z,1058.3
2017-01-19T04:27:37.973Z,1058.31
2017-01-19T04:28:37.961Z,1058.35
2017-01-19T04:29:37.942Z,1058.38
2017-01-19T04:30:37.926Z,1058.4
2017-01-19T04:31:37.909Z,1058.44
2017-01-19T04:32:37.895Z,1058.54
2017-01-19T04:33:37.877Z,1058.55
2017-01-19T04:34:37.860Z,1058.56
2017-01-19T04:35:37.845Z,1058.63
2017-01-19T04:36:37.829Z,1058.62
2017-01-19T04:37:37.813Z,1058.6
2017-01-19T04:38:37.797Z,1058.56
2017-01-19T04:39:37.780Z,1058.49
2017-01-19T04:40:37.764Z,1058.47
2017-01-19T04:41:37.749Z,1058.46
2017-01-19T04:42:37.732Z,1058.44
2017-01-19T04:43:37.716Z,1058.39
2017-01-19T04:44:37.702Z,1058.42
2017-01-19T04:45:37.683Z,1058.4
2017-01-19T04:46:37.667Z,1058.4
2017-01-19T04:47:37.651Z,1058.33
2017-01-19T04:48:37.635Z,1058.3
2017-01-19T04:49:37.618Z,1058.29
2017-01-19T04:50:37.602Z,1058.26
2017-01-19T04:51:37.587Z,1058.26
2017-01-19T04:52:37.571Z,1058.19
2017-01-19T04:53:37.554Z,1058.24
2017-01-19T04:54:37.538Z,1058.21
2017-01-19T04:55:37.521Z,1058.2
2017-01-19T04:56:37.504Z,1058.23
2017-01-19T04:57:37.488Z,1058.23
2017-01-19T04:58:37.471Z,1058.21
2017-01-19T04:59:37.455Z,1058.2
2017-01-19T05:00:37.438Z,1058.24
2017-01-19T05:01:37.421Z,1058.23
2017-01-19T05:02:37.404Z,1058.29
2017-01-19T05:03:37.388Z,1058.39
2017-01-19T05:04:37.371Z,1058.43
2017-01-19T05:05:37.355Z,1058.44
2017-01-19T05:06:37.338Z,1058.4
2017-01-19T05:07:37.322Z,1058.4
2017-01-19T05:08:37.304Z,1058.38
2017-01-19T05:09:37.288Z,1058.33
2017-01-19T05:10:37.272Z,1058.34
2017-01-19T05:11:37.254Z,1058.33
2017-01-19T05:12:37.238Z,1058.31
2017-01-19T05:13:37.221Z,1058.28
2017-01-19T05:14:37.206Z,1058.29
2017-01-19T05:15:37.191Z,1058.26
2017-01-19T05:16:37.172Z,1058.25
2017-01-19T05:17:37.156Z,1058.27
2017-01-19T05:18:37.138Z,1058.19
2017-01-19T05:19:37.122Z,1058.19
2017-01-19T05:20:37.105Z,1058.09
2017-01-19T05:21:37.089Z,1058.08
2017-01-19T05:22:37.072Z,1058.02
2017-01-19T05:23:37.055Z,1058.11
2017-01-19T05:24:37.046Z,1058.08
2017-01-19T05:25:37.021Z,1058.11
2017-01-19T05:26:37.005Z,1058.2
2017-01-19T05:27:36.989Z,1058.21
2017-01-19T05:28:36.972Z,1058.22
2017-01-19T05:29:36.955Z,1058.18
2017-01-19T05:30:36.941Z,1058.13
2017-01-19T05:31:36.923Z,1058.1
2017-01-19T05:32:36.907Z,1058.09
2017-01-19T05:33:36.889Z,1058.02
2017-01-19T05:34:36.873Z,1057.98
2017-01-19T05:35:36.857Z,1058
2017-01-19T05:36:36.840Z,1057.99
2017-01-19T05:37:36.824Z,1058.05
2017-01-19T05:38:36.807Z,1058.07
2017-01-19T05:39:36.791Z,1058.05
2017-01-19T05:40:36.775Z,1058.05
2017-01-19T05:41:36.758Z,1058.06
2017-01-19T05:42:36.743Z,1058.1
2017-01-19T05:43:36.726Z,1058.1
2017-01-19T05:44:36.708Z,1058.12
2017-01-19T05:45:36.692Z,1058.12
2017-01-19T05:46:36.676Z,1058.08
2017-01-19T05:47:36.659Z,1058.08
2017-01-19T05:48:36.643Z,1058
2017-01-19T05:49:36.627Z,1057.98
2017-01-19T05:50:36.611Z,1057.93
2017-01-19T05:51:36.593Z,1057.88
2017-01-19T05:52:36.577Z,1057.89
2017-01-19T05:53:36.562Z,1057.83
2017-01-19T05:54:36.545Z,1057.81
2017-01-19T05:55:36.528Z,1057.8
2017-01-19T05:56:36.511Z,1057.78
2017-01-19T05:57:36.495Z,1057.74
2017-01-19T05:58:36.478Z,1057.8
2017-01-19T05:59:36.462Z,1057.85
2017-01-19T06:00:36.446Z,1057.86
2017-01-19T06:01:36.429Z,1057.9
2017-01-19T06:02:36.412Z,1057.89
2017-01-19T06:03:36.396Z,1057.94
2017-01-19T06:04:36.380Z,1057.95
2017-01-19T06:05:36.364Z,1057.93
2017-01-19T06:06:36.347Z,1057.96
2017-01-19T06:07:36.332Z,1057.93
2017-01-19T06:08:36.315Z,1057.96
2017-01-19T06:09:36.298Z,1057.91
2017-01-19T06:10:36.282Z,1057.95
2017-01-19T06:11:36.266Z,1057.98
2017-01-19T06:12:36.250Z,1057.99
2017-01-19T06:13:36.235Z,1058.01
2017-01-19T06:14:36.217Z,1058.06
2017-01-19T06:15:36.201Z,1058.09
2017-01-19T06:16:36.185Z,1058.12
2017-01-19T06:17:36.168Z,1058.1
2017-01-19T06:18:36.152Z,1058.14
2017-01-19T06:19:36.136Z,1058.17
2017-01-19T06:20:36.122Z,1058.19
2017-01-19T06:21:36.103Z,1058.19
2017-01-19T06:22:36.087Z,1058.16
2017-01-19T06:23:36.071Z,1058.12
2017-01-19T06:24:36.053Z,1058.08
2017-01-19T06:25:36.038Z,1058.05
2017-01-19T06:26:36.021Z,1058.1
2017-01-19T06:27:36.005Z,1058.04
2017-01-19T06:28:35.988Z,1058.05
2017-01-19T06:29:35.972Z,1058.04
2017-01-19T06:30:35.956Z,1058.01
2017-01-19T06:31:35.939Z,1057.98
2017-01-19T06:32:35.923Z,1057.94
2017-01-19T06:33:35.907Z,1057.95
2017-01-19T06:34:35.892Z,1057.9
2017-01-19T06:35:35.875Z,1057.89
2017-01-19T06:36:35.858Z,1057.91
2017-01-19T06:37:35.842Z,1057.96
2017-01-19T06:38:35.826Z,1058
2017-01-19T06:39:35.809Z,1058.01
2017-01-19T06:40:35.793Z,1058.05
2017-01-19T06:41:35.777Z,1058.02
2017-01-19T06:42:35.760Z,1058.06
2017-01-19T06:43:35.743Z,1058.09
2017-01-19T06:44:35.728Z,1058.13
2017-01-19T06:45:35.712Z,1058.12
2017-01-19T06:46:35.695Z,1058.11
2017-01-19T06:47:35.678Z,1058.12
2017-01-19T06:48:35.667Z,1058.13
2017-01-19T06:49:35.646Z,1058.12
2017-01-19T06:50:35.630Z,1058.07
2017-01-19T06:51:35.614Z,1058.05
2017-01-19T06:52:35.598Z,1058.07
2017-01-19T06:53:35.581Z,1058.06
2017-01-19T06:54:35.565Z,1058.11
2017-01-19T06:55:35.550Z,1058.12
2017-01-19T06:56:35.532Z,1058.1
2017-01-19T06:57:35.515Z,1058.09
2017-01-19T06:58:35.499Z,1058.08
2017-01-19T06:59:35.483Z,1058.06
2017-01-19T07:00:35.467Z,1058.04
2017-01-19T07:01:35.450Z,1058.02
2017-01-19T07:02:35.434Z,1058
2017-01-19T07:03:35.418Z,1057.98
2017-01-19T07:04:35.401Z,1057.96
2017-01-19T07:05:35.385Z,1057.92
2017-01-19T07:06:35.369Z,1057.92
2017-01-19T07:07:35.352Z,1057.92
2017-01-19T07:08:35.335Z,1057.9
2017-01-19T07:09:35.319Z,1057.94
2017-01-19T07:10:35.303Z,1057.96
2017-01-19T07:11:35.286Z,1057.97
2017-01-19T07:12:35.270Z,1058.02
2017-01-19T07:13:35.254Z,1058.01
2017-01-19T07:14:35.238Z,1058.02
2017-01-19T07:15:35.221Z,1058.05
2017-01-19T07:16:35.205Z,1058.04
2017-01-19T07:17:35.189Z,1058.04
2017-01-19T07:18:35.174Z,1058.04
2017-01-19T07:19:35.156Z,1058.05
2017-01-19T07:20:35.140Z,1058.03
2017-01-19T07:21:35.124Z,1057.99
2017-01-19T07:22:35.107Z,1057.99
2017-01-19T07:23:35.091Z,1058.03
2017-01-19T07:24:35.077Z,1058.04
2017-01-19T07:25:35.060Z,1058.07
2017-01-19T07:26:35.042Z,1058.06
2017-01-19T07:27:35.027Z,1058.06
2017-01-19T07:28:35.013Z,1058.05
2017-01-19T07:29:34.994Z,1058.03
2017-01-19T07:30:34.978Z,1057.97
2017-01-19T07:31:34.962Z,1057.93
2017-01-19T07:32:34.947Z,1057.93
2017-01-19T07:33:34.930Z,1057.91
2017-01-19T07:34:34.915Z,1057.88
2017-01-19T07:35:34.898Z,1057.86
2017-01-19T07:36:34.881Z,1057.82
2017-01-19T07:37:34.865Z,1057.78
2017-01-19T07:38:34.850Z,1057.77
2017-01-19T07:39:34.833Z,1057.77
2017-01-19T07:40:34.817Z,1057.77
2017-01-19T07:41:34.800Z,1057.77
2017-01-19T07:42:34.785Z,1057.78
2017-01-19T07:43:34.768Z,1057.8
2017-01-19T07:44:34.753Z,1057.83
2017-01-19T07:45:34.736Z,1057.85
2017-01-19T07:46:34.720Z,1057.83
2017-01-19T07:47:34.704Z,1057.79
2017-01-19T07:48:34.687Z,1057.78
2017-01-19T07:49:34.671Z,1057.71
2017-01-19T07:50:34.656Z,1057.63
2017-01-19T07:51:34.640Z,1057.51
2017-01-19T07:52:34.623Z,1057.48
2017-01-19T07:53:34.609Z,1057.46
2017-01-19T07:54:34.592Z,1057.48
2017-01-19T07:55:34.576Z,1057.46
2017-01-19T07:56:34.560Z,1057.47
2017-01-19T07:57:34.545Z,1057.49
2017-01-19T07:58:34.529Z,1057.47
2017-01-19T07:59:34.512Z,1057.47
2017-01-19T08:00:34.498Z,1057.48
2017-01-19T08:01:34.482Z,1057.44
2017-01-19T08:02:34.467Z,1057.46
2017-01-19T08:03:34.450Z,1057.45
2017-01-19T08:04:34.435Z,1057.49
2017-01-19T08:05:34.419Z,1057.44
2017-01-19T08:06:34.403Z,1057.44
2017-01-19T08:07:34.388Z,1057.43
2017-01-19T08:08:34.372Z,1057.4
2017-01-19T08:09:34.357Z,1057.34
2017-01-19T08:10:34.341Z,1057.29
2017-01-19T08:11:34.325Z,1057.23
2017-01-19T08:12:34.310Z,1057.18
2017-01-19T08:13:34.295Z,1057.13
2017-01-19T08:14:34.281Z,1057.07
2017-01-19T08:15:34.265Z,1057.06
2017-01-19T08:16:34.249Z,1056.98
2017-01-19T08:17:34.233Z,1056.89
2017-01-19T08:18:34.221Z,1056.91
2017-01-19T08:19:34.203Z,1057.02
2017-01-19T08:20:34.188Z,1057.15
2017-01-19T08:21:34.172Z,1057.14
2017-01-19T08:22:34.156Z,1057.16
2017-01-19T08:23:34.143Z,1057.11
2017-01-19T08:24:34.127Z,1057.13
2017-01-19T08:25:34.112Z,1057.09
2017-01-19T08:26:34.097Z,1057.09
2017-01-19T08:27:34.083Z,1057.02
2017-01-19T08:28:34.067Z,1057.02
2017-01-19T08:29:34.052Z,1057.02
2017-01-19T08:30:34.038Z,1057.03
2017-01-19T08:31:34.022Z,1057.03
2017-01-19T08:32:34.007Z,1057.06
2017-01-19T08:33:33.992Z,1057.03
2017-01-19T08:34:33.978Z,1056.97
2017-01-19T08:35:33.962Z,1056.97
2017-01-19T08:36:33.947Z,1056.9
2017-01-19T08:37:33.933Z,1056.81
2017-01-19T08:38:33.920Z,1056.74
2017-01-19T08:39:33.903Z,1056.69
2017-01-19T08:40:33.888Z,1056.67
2017-01-19T08:41:33.874Z,1056.67
2017-01-19T08:42:33.859Z,1056.68
2017-01-19T08:43:33.844Z,1056.65
2017-01-19T08:44:33.829Z,1056.64
2017-01-19T08:45:33.815Z,1056.66
2017-01-19T08:46:33.799Z,1056.69
2017-01-19T08:47:33.785Z,1056.72
2017-01-19T08:48:33.771Z,1056.69
2017-01-19T08:49:33.756Z,1056.66
2017-01-19T08:50:33.741Z,1056.6
2017-01-19T08:51:33.727Z,1056.5
2017-01-19T08:52:33.712Z,1056.43
2017-01-19T08:53:33.698Z,1056.37
2017-01-19T08:54:33.686Z,1056.29
2017-01-19T08:55:33.669Z,1056.25
2017-01-19T08:56:33.655Z,1056.23
2017-01-19T08:57:33.640Z,1056.17
2017-01-19T08:58:33.626Z,1056.06
2017-01-19T08:59:33.612Z,1056.07
2017-01-19T09:00:33.598Z,1055.97
2017-01-19T09:01:33.583Z,1055.99
2017-01-19T09:02:33.569Z,1056.02
2017-01-19T09:03:33.555Z,1055.95
2017-01-19T09:04:33.542Z,1055.94
2017-01-19T09:05:33.526Z,1055.94
2017-01-19T09:06:33.512Z,1055.94
2017-01-19T09:07:33.498Z,1055.95
2017-01-19T09:08:33.484Z,1055.96
2017-01-19T09:09:33.469Z,1055.96
2017-01-19T09:10:33.456Z,1055.99
2017-01-19T09:11:33.443Z,1055.98
2017-01-19T09:12:33.430Z,1055.98
2017-01-19T09:13:33.414Z,1056
2017-01-19T09:14:33.403Z,1056.02
2017-01-19T09:15:33.387Z,1056.03
2017-01-19T09:16:33.372Z,1055.98
2017-01-19T09:17:33.359Z,1056.01
2017-01-19T09:18:33.346Z,1056
2017-01-19T09:19:33.331Z,1055.99
2017-01-19T09:20:33.317Z,1055.96
2017-01-19T09:21:33.303Z,1055.94
2017-01-19T09:22:33.289Z,1055.88
2017-01-19T09:23:33.275Z,1055.9
2017-01-19T09:24:33.261Z,1055.87
2017-01-19T09:25:33.247Z,1055.86
2017-01-19T09:26:33.236Z,1055.83
2017-01-19T09:27:33.220Z,1055.8
2017-01-19T09:28:33.208Z,1055.73
2017-01-19T09:29:33.193Z,1055.68
2017-01-19T09:30:33.179Z,1055.58
2017-01-19T09:31:33.165Z,1055.57
2017-01-19T09:32:33.152Z,1055.57
2017-01-19T09:33:33.139Z,1055.53
2017-01-19T09:34:33.124Z,1055.44
2017-01-19T09:35:33.111Z,1055.33
2017-01-19T09:36:33.098Z,1055.2
2017-01-19T09:37:33.084Z,1055.16
2017-01-19T09:38:33.070Z,1055.1
2017-01-19T09:39:33.058Z,1055.08
2017-01-19T09:40:33.045Z,1055.07
2017-01-19T09:41:33.031Z,1055.08
2017-01-19T09:42:33.018Z,1055.02
2017-01-19T09:43:33.005Z,1054.99
2017-01-19T09:44:32.992Z,1054.92
2017-01-19T09:45:32.979Z,1054.85
2017-01-19T09:46:32.966Z,1054.81
2017-01-19T09:47:32.953Z,1054.73
2017-01-19T09:48:32.941Z,1054.77
2017-01-19T09:49:32.927Z,1054.76
2017-01-19T09:50:32.915Z,1054.78
2017-01-19T09:51:32.902Z,1054.74
2017-01-19T09:52:32.889Z,1054.69
2017-01-19T09:53:32.876Z,1054.61
2017-01-19T09:54:32.864Z,1054.58
2017-01-19T09:55:32.851Z,1054.58
2017-01-19T09:56:32.838Z,1054.58
2017-01-19T09:57:32.827Z,1054.62
2017-01-19T09:58:32.814Z,1054.63
2017-01-19T09:59:32.802Z,1054.59
2017-01-19T10:00:32.789Z,1054.54
2017-01-19T10:01:32.777Z,1054.53
2017-01-19T10:02:32.765Z,1054.56
2017-01-19T10:03:32.751Z,1054.63
2017-01-19T10:04:32.739Z,1054.7
2017-01-19T10:05:32.727Z,1054.71
2017-01-19T10:06:32.715Z,1054.65
2017-01-19T10:07:32.702Z,1054.53
2017-01-19T10:08:32.690Z,1054.53
2017-01-19T10:09:32.677Z,1054.48
2017-01-19T10:10:32.665Z,1054.56
2017-01-19T10:11:32.653Z,1054.61
2017-01-19T10:12:32.640Z,1054.67
2017-01-19T10:13:32.629Z,1054.68
2017-01-19T10:14:32.615Z,1054.7
2017-01-19T10:15:32.604Z,1054.67
2017-01-19T10:16:32.591Z,1054.64
2017-01-19T10:17:32.579Z,1054.62
2017-01-19T10:18:32.566Z,1054.52
2017-01-19T10:19:32.554Z,1054.42
2017-01-19T10:20:32.541Z,1054.33
2017-01-19T10:21:32.529Z,1054.25
2017-01-19T10:22:32.516Z,1054.19
2017-01-19T10:23:32.504Z,1054.22
2017-01-19T10:24:32.495Z,1054.29
2017-01-19T10:25:32.479Z,1054.32
2017-01-19T10:26:32.467Z,1054.25
2017-01-19T10:27:32.455Z,1054.19
2017-01-19T10:28:32.443Z,1054.2
2017-01-19T10:29:32.431Z,1054.16
2017-01-19T10:30:32.418Z,1054.27
2017-01-19T10:31:32.406Z,1054.34
2017-01-19T10:32:32.394Z,1054.4
2017-01-19T10:33:32.382Z,1054.34
2017-01-19T10:34:32.370Z,1054.32
2017-01-19T10:35:32.358Z,1054.26
2017-01-19T10:36:32.345Z,1054.2
2017-01-19T10:37:32.335Z,1054.19
2017-01-19T10:38:32.322Z,1054.21
2017-01-19T10:39:32.311Z,1054.19
2017-01-19T10:40:32.298Z,1054.15
2017-01-19T10:41:32.285Z,1054.05
2017-01-19T10:42:32.274Z,1054.05
2017-01-19T10:43:32.261Z,1053.98
2017-01-19T10:44:32.249Z,1053.96
2017-01-19T10:45:32.238Z,1053.96
2017-01-19T10:46:32.226Z,1053.94
2017-01-19T10:47:32.213Z,1053.91
2017-01-19T10:48:32.202Z,1053.92
2017-01-19T10:49:32.191Z,1053.88
2017-01-19T10:50:32.179Z,1053.88
2017-01-19T10:51:32.167Z,1053.84
2017-01-19T10:52:32.156Z,1053.8
2017-01-19T10:53:32.144Z,1053.73
2017-01-19T10:54:32.132Z,1053.75
2017-01-19T10:55:32.120Z,1053.74
2017-01-19T10:56:32.109Z,1053.71
2017-01-19T10:57:32.098Z,1053.7
2017-01-19T10:58:32.086Z,1053.8
2017-01-19T10:59:32.076Z,1053.79
2017-01-19T11:00:32.063Z,1053.79
2017-01-19T11:01:32.054Z,1053.73
2017-01-19T11:02:32.040Z,1053.64
2017-01-19T11:03:32.030Z,1053.61
2017-01-19T11:04:32.018Z,1053.56
2017-01-19T11:05:32.014Z,1053.57
2017-01-19T11:06:31.996Z,1053.57
2017-01-19T11:07:31.984Z,1053.53
2017-01-19T11:08:31.974Z,1053.55
2017-01-19T11:09:31.960Z,1053.5
2017-01-19T11:10:31.950Z,1053.5
2017-01-19T11:11:31.938Z,1053.5
2017-01-19T11:12:31.927Z,1053.6
2017-01-19T11:13:31.915Z,1053.63
2017-01-19T11:14:31.904Z,1053.63
2017-01-19T11:15:31.893Z,1053.57
2017-01-19T11:16:31.881Z,1053.55
2017-01-19T11:17:31.870Z,1053.54
2017-01-19T11:18:31.859Z,1053.44
2017-01-19T11:19:31.850Z,1053.42
2017-01-19T11:20:31.837Z,1053.36
2017-01-19T11:21:31.826Z,1053.35
2017-01-19T11:22:31.815Z,1053.33
2017-01-19T11:23:31.804Z,1053.28
2017-01-19T11:24:31.794Z,1053.32
2017-01-19T11:25:31.781Z,1053.37
2017-01-19T11:26:31.770Z,1053.42
2017-01-19T11:27:31.759Z,1053.43
2017-01-19T11:28:31.748Z,1053.4
2017-01-19T11:29:31.737Z,1053.38
2017-01-19T11:30:31.727Z,1053.34
2017-01-19T11:31:31.714Z,1053.34
2017-01-19T11:32:31.704Z,1053.37
2017-01-19T11:33:31.695Z,1053.42
2017-01-19T11:34:31.684Z,1053.38
2017-01-19T11:35:31.671Z,1053.4
2017-01-19T11:36:31.661Z,1053.4
2017-01-19T11:37:31.650Z,1053.41
2017-01-19T11:38:31.638Z,1053.44
2017-01-19T11:39:31.627Z,1053.36
2017-01-19T11:40:31.616Z,1053.31
2017-01-19T11:41:31.606Z,1053.25
2017-01-19T11:42:31.594Z,1053.23
2017-01-19T11:43:31.583Z,1053.27
2017-01-19T11:44:31.572Z,1053.31
2017-01-19T11:45:31.560Z,1053.36
2017-01-19T11:46:31.549Z,1053.3
2017-01-19T11:47:31.539Z,1053.23
2017-01-19T11:48:31.528Z,1053.14
2017-01-19T11:49:31.516Z,1053.06
2017-01-19T11:50:31.505Z,1053
2017-01-19T11:51:31.494Z,1053.03
2017-01-19T11:52:31.484Z,1053.01
2017-01-19T11:53:31.472Z,1052.97
2017-01-19T11:54:31.461Z,1052.87
2017-01-19T11:55:31.450Z,1052.81
2017-01-19T11:56:31.439Z,1052.89
2017-01-19T11:57:31.428Z,1052.92
2017-01-19T11:58:31.417Z,1052.96
2017-01-19T11:59:31.406Z,1053.04
2017-01-19T12:00:31.394Z,1053
2017-01-19T12:01:31.384Z,1052.93
2017-01-19T12:02:31.373Z,1052.88
2017-01-19T12:03:31.362Z,1052.78
2017-01-19T12:04:31.350Z,1052.72
2017-01-19T12:05:31.339Z,1052.72
2017-01-19T12:06:31.330Z,1052.7
2017-01-19T12:07:31.318Z,1052.71
2017-01-19T12:08:31.306Z,1052.77